Time;durP1;ratioP1;P1;durP2;ratioP2;P2;SDS_P1;SDS_P2;PMS_P1;PMS_P2;Temp;Humidity;BMP_temperature;BMP_pressure;BME280_temperature;BME280_humidity;BME280_pressure;Samples;Min_cycle;Max_cycle;Signal;HPM_P1;HPM_P2
2022/10/30 00:01:58;;;;;;;42.95;25.80;;;22.20;63.60;;;;;;4938308;29;20020;-81
2022/10/30 00:04:24;;;;;;;48.58;28.42;;;22.30;63.00;;;;;;4938715;29;20036;-82
2022/10/30 00:06:50;;;;;;;43.80;26.42;;;22.30;63.30;;;;;;4936423;29;20461;-81
2022/10/30 00:09:16;;;;;;;47.70;27.15;;;21.90;64.00;;;;;;4935374;29;20028;-81
2022/10/30 00:11:42;;;;;;;48.72;28.35;;;21.80;64.10;;;;;;4938132;29;20032;-82
2022/10/30 00:14:07;;;;;;;48.40;27.23;;;21.80;64.50;;;;;;4937139;29;20046;-81
2022/10/30 00:16:33;;;;;;;51.53;28.45;;;21.90;64.20;;;;;;4947123;29;20054;-81
2022/10/30 00:18:59;;;;;;;48.20;27.63;;;22.10;63.30;;;;;;4957702;29;20023;-80
2022/10/30 00:21:25;;;;;;;45.78;26.17;;;22.10;63.60;;;;;;4953292;29;20035;-81
2022/10/30 00:23:52;;;;;;;44.20;25.58;;;21.60;64.60;;;;;;4937622;29;20498;-81
2022/10/30 00:26:20;;;;;;;41.83;25.08;;;21.60;64.50;;;;;;4937847;29;20102;-80
2022/10/30 00:28:53;;;;;;;45.50;26.77;;;21.60;64.70;;;;;;4936566;29;20138;-78
2022/10/30 00:31:19;;;;;;;46.17;27.38;;;21.50;64.90;;;;;;4937027;29;20020;-79
2022/10/30 00:33:49;;;;;;;45.47;24.65;;;21.30;65.70;;;;;;4937671;29;20042;-79
2022/10/30 00:36:15;;;;;;;51.83;27.13;;;21.50;64.90;;;;;;4935979;29;20034;-79
2022/10/30 00:38:40;;;;;;;51.67;28.23;;;21.50;65.10;;;;;;4937062;29;20118;-79
2022/10/30 00:41:06;;;;;;;48.25;26.85;;;21.50;64.80;;;;;;4937456;29;20024;-79
2022/10/30 00:43:36;;;;;;;45.35;26.50;;;21.60;64.70;;;;;;4935723;29;20438;-79
2022/10/30 00:46:27;;;;;;;42.23;25.57;;;21.80;64.40;;;;;;4935365;29;20458;-80
2022/10/30 00:48:55;;;;;;;;;;;21.90;64.20;;;;;;4936033;29;20043;-80
2022/10/30 00:51:21;;;;;;;47.90;26.85;;;21.90;64.40;;;;;;4954480;29;19912;-78
2022/10/30 00:53:48;;;;;;;41.22;25.05;;;21.80;64.90;;;;;;4943883;28;20467;-79
2022/10/30 00:56:16;;;;;;;47.67;26.35;;;21.80;64.50;;;;;;4935192;29;20471;-79
2022/10/30 00:58:47;;;;;;;47.78;27.25;;;21.80;64.70;;;;;;4936887;29;20051;-79
2022/10/30 01:01:18;;;;;;;;;;;21.90;64.30;;;;;;4935689;29;20023;-78
2022/10/30 01:03:46;;;;;;;51.78;28.15;;;21.90;64.00;;;;;;4951077;29;19906;-79
2022/10/30 01:06:14;;;;;;;48.05;26.52;;;21.80;63.90;;;;;;4940424;29;20038;-79
2022/10/30 01:08:40;;;;;;;47.22;26.92;;;21.60;64.10;;;;;;4936449;29;20035;-78
2022/10/30 01:11:08;;;;;;;51.55;28.77;;;21.50;65.00;;;;;;4936444;29;20066;-79
2022/10/30 01:13:35;;;;;;;52.88;27.60;;;21.70;64.50;;;;;;4950949;28;20040;-79
2022/10/30 01:16:22;;;;;;;52.58;27.67;;;21.80;64.40;;;;;;4935201;29;20064;-78
2022/10/30 01:19:09;;;;;;;56.75;28.42;;;21.80;64.20;;;;;;4934699;29;20091;-79
2022/10/30 01:21:47;;;;;;;55.80;29.48;;;21.80;64.30;;;;;;4932954;29;20042;-79
2022/10/30 01:24:20;;;;;;;47.08;27.40;;;21.80;64.50;;;;;;4935487;29;20031;-79
2022/10/30 01:26:52;;;;;;;58.03;30.23;;;21.90;64.30;;;;;;4935928;29;20024;-79
2022/10/30 01:29:43;;;;;;;55.00;29.70;;;22.00;63.70;;;;;;4935132;29;20058;-79
2022/10/30 01:32:21;;;;;;;62.55;30.05;;;22.00;63.90;;;;;;4927658;29;20507;-79
2022/10/30 01:35:09;;;;;;;54.63;28.30;;;22.20;63.30;;;;;;4934342;29;20063;-78
2022/10/30 01:37:55;;;;;;;50.00;27.55;;;22.00;63.70;;;;;;4933898;29;20051;-79
2022/10/30 01:40:21;;;;;;;57.38;30.48;;;21.80;64.20;;;;;;4934442;29;20142;-79
2022/10/30 01:42:50;;;;;;;49.08;26.40;;;22.00;64.20;;;;;;4933650;29;21848;-79
2022/10/30 01:45:23;;;;;;;57.90;28.27;;;22.10;64.00;;;;;;4929391;29;20103;-79
2022/10/30 01:48:11;;;;;;;59.35;29.35;;;21.90;64.50;;;;;;4942756;29;20044;-80
2022/10/30 01:51:08;;;;;;;50.42;28.30;;;21.50;64.80;;;;;;4935015;29;20052;-79
2022/10/30 01:53:48;;;;;;;54.80;27.98;;;21.40;65.10;;;;;;4949878;28;20035;-79
2022/10/30 01:56:19;;;;;;;57.53;29.67;;;21.40;65.20;;;;;;4934010;29;20031;-79
2022/10/30 01:58:59;;;;;;;59.67;30.58;;;21.50;65.10;;;;;;4934891;29;20035;-78
2022/10/30 02:01:27;;;;;;;55.75;29.40;;;21.80;64.50;;;;;;4935118;29;20390;-79
2022/10/30 02:03:53;;;;;;;51.28;27.92;;;21.90;63.80;;;;;;4934172;29;20076;-79
2022/10/30 02:06:19;;;;;;;55.90;29.13;;;22.00;63.90;;;;;;4950297;29;20360;-79
2022/10/30 02:08:44;;;;;;;49.80;26.08;;;22.10;64.00;;;;;;4949969;29;20039;-79
2022/10/30 02:11:11;;;;;;;52.05;28.27;;;22.00;63.70;;;;;;4934855;29;20479;-80
2022/10/30 02:13:37;;;;;;;49.17;27.25;;;22.10;63.30;;;;;;4935285;29;20467;-79
2022/10/30 02:16:03;;;;;;;55.45;28.00;;;21.90;64.40;;;;;;4935819;29;20498;-80
2022/10/30 02:18:29;;;;;;;57.25;28.98;;;21.80;64.40;;;;;;4934177;29;20055;-79
2022/10/30 02:20:54;;;;;;;55.58;28.75;;;21.70;64.80;;;;;;4933215;29;20038;-79
2022/10/30 02:23:21;;;;;;;62.53;30.45;;;21.90;64.20;;;;;;4934553;29;20043;-79
2022/10/30 02:25:47;;;;;;;48.22;26.27;;;22.00;63.90;;;;;;4933920;29;20032;-78
2022/10/30 02:28:12;;;;;;;58.70;29.60;;;21.70;65.00;;;;;;4933927;29;20047;-79
2022/10/30 02:30:42;;;;;;;55.13;28.30;;;21.60;64.70;;;;;;4934524;29;20394;-78
2022/10/30 02:33:09;;;;;;;50.25;26.30;;;21.30;65.30;;;;;;4945767;29;20036;-77
2022/10/30 02:35:34;;;;;;;46.28;25.88;;;21.40;64.90;;;;;;4915772;29;20042;-79
2022/10/30 02:38:01;;;;;;;55.45;28.45;;;21.50;64.50;;;;;;4938228;29;20031;-79
2022/10/30 02:40:26;;;;;;;51.47;26.35;;;21.60;64.20;;;;;;4934377;29;20043;-79
2022/10/30 02:42:53;;;;;;;59.00;28.90;;;21.50;65.10;;;;;;4949257;29;20036;-79
2022/10/30 02:45:20;;;;;;;56.13;28.52;;;21.70;64.70;;;;;;4934906;29;20054;-79
2022/10/30 02:47:45;;;;;;;50.33;27.67;;;21.80;64.50;;;;;;4932653;29;20039;-79
2022/10/30 02:50:11;;;;;;;57.05;29.05;;;21.90;64.20;;;;;;4934277;29;20091;-81
2022/10/30 02:52:37;;;;;;;59.22;29.50;;;21.90;63.70;;;;;;4948003;29;20083;-80
2022/10/30 02:55:03;;;;;;;55.38;29.27;;;21.80;63.90;;;;;;4934248;29;20027;-79
2022/10/30 02:57:29;;;;;;;52.40;27.10;;;21.70;64.40;;;;;;4932260;29;20032;-79
2022/10/30 02:59:55;;;;;;;50.20;26.83;;;21.70;64.40;;;;;;4933748;29;20042;-80
2022/10/30 03:02:20;;;;;;;50.30;27.08;;;21.60;64.70;;;;;;4932813;29;20093;-79
2022/10/30 03:04:46;;;;;;;53.80;27.50;;;21.70;64.70;;;;;;4934403;29;20035;-79
2022/10/30 03:07:12;;;;;;;53.70;27.85;;;21.70;64.20;;;;;;4934440;29;20470;-81
2022/10/30 03:09:37;;;;;;;61.47;28.15;;;21.50;64.80;;;;;;4933251;29;20130;-81
2022/10/30 03:12:03;;;;;;;55.70;27.88;;;21.50;65.10;;;;;;4933824;29;20027;-78
2022/10/30 03:14:29;;;;;;;51.53;26.30;;;21.70;64.60;;;;;;4934954;29;20039;-79
2022/10/30 03:16:55;;;;;;;55.15;26.63;;;21.80;64.40;;;;;;4932581;29;20087;-79
2022/10/30 03:19:21;;;;;;;51.90;27.10;;;21.70;64.20;;;;;;4933564;29;20503;-80
2022/10/30 03:21:47;;;;;;;50.00;26.27;;;21.70;64.60;;;;;;4932562;29;20020;-81
2022/10/30 03:24:13;;;;;;;56.38;27.95;;;21.90;64.00;;;;;;4935003;29;20024;-80
2022/10/30 03:26:39;;;;;;;47.53;24.33;;;21.90;64.00;;;;;;4947833;28;20032;-80
2022/10/30 03:29:05;;;;;;;50.83;26.70;;;22.00;63.90;;;;;;4933423;29;20066;-79
2022/10/30 03:31:31;;;;;;;45.83;25.60;;;22.00;63.50;;;;;;4933202;29;20034;-80
2022/10/30 03:33:57;;;;;;;52.90;27.92;;;22.00;63.70;;;;;;4934304;29;20031;-78
2022/10/30 03:36:24;;;;;;;46.90;25.95;;;21.90;64.00;;;;;;4933850;29;20024;-80
2022/10/30 03:38:50;;;;;;;51.83;25.95;;;21.80;64.40;;;;;;4933828;29;20383;-80
2022/10/30 03:41:16;;;;;;;48.53;24.83;;;21.80;64.40;;;;;;4934185;29;20483;-79
2022/10/30 03:43:41;;;;;;;44.40;24.50;;;21.80;64.20;;;;;;4936393;29;20086;-79
2022/10/30 03:46:10;;;;;;;52.55;26.17;;;21.70;64.00;;;;;;4936305;29;20526;-79
2022/10/30 03:48:35;;;;;;;53.30;27.33;;;21.70;64.60;;;;;;4936121;29;20032;-80
2022/10/30 03:51:01;;;;;;;52.10;26.50;;;21.70;64.50;;;;;;4938052;29;20030;-79
2022/10/30 03:53:28;;;;;;;49.40;26.33;;;21.70;64.70;;;;;;4941639;29;20024;-80
2022/10/30 03:55:59;;;;;;;47.90;26.20;;;21.70;64.30;;;;;;4935353;29;20031;-79
2022/10/30 03:58:25;;;;;;;50.50;26.27;;;21.60;64.60;;;;;;4937360;29;20570;-81
2022/10/30 04:00:51;;;;;;;55.58;26.60;;;21.50;64.90;;;;;;4952076;29;20047;-80
2022/10/30 04:03:17;;;;;;;55.55;26.65;;;21.20;65.60;;;;;;4931735;29;20032;-79
2022/10/30 04:05:42;;;;;;;51.90;27.15;;;21.30;65.10;;;;;;4930604;29;20367;-79
2022/10/30 04:08:12;;;;;;;49.85;26.13;;;21.60;64.70;;;;;;4936704;29;20434;-80
2022/10/30 04:10:44;;;;;;;47.75;25.30;;;21.60;64.60;;;;;;4935529;29;20498;-80
2022/10/30 04:13:12;;;;;;;57.20;27.95;;;21.60;64.40;;;;;;4937123;29;20094;-79
2022/10/30 04:15:37;;;;;;;58.55;28.40;;;21.70;64.00;;;;;;4936116;29;20024;-78
2022/10/30 04:18:03;;;;;;;50.25;25.73;;;21.80;64.10;;;;;;4937794;29;20035;-80
2022/10/30 04:20:29;;;;;;;50.55;27.33;;;21.80;64.30;;;;;;4935300;29;20035;-80
2022/10/30 04:23:00;;;;;;;57.78;28.38;;;21.80;64.10;;;;;;4937376;29;20073;-80
2022/10/30 04:25:27;;;;;;;47.55;25.05;;;21.80;64.00;;;;;;4937441;29;20028;-81
2022/10/30 04:27:53;;;;;;;35.50;20.45;;;21.90;63.70;;;;;;4936259;29;20044;-78
2022/10/30 04:30:20;;;;;;;29.52;17.98;;;22.00;63.20;;;;;;4937282;29;20030;-80
2022/10/30 04:32:50;;;;;;;34.03;18.98;;;22.00;63.00;;;;;;4936606;29;20844;-79
2022/10/30 04:35:17;;;;;;;31.50;18.63;;;22.00;62.70;;;;;;4935526;29;20023;-79
2022/10/30 04:37:50;;;;;;;29.48;17.88;;;22.00;62.30;;;;;;4935287;29;20028;-80
2022/10/30 04:40:16;;;;;;;27.55;17.70;;;22.00;62.40;;;;;;4938893;29;20028;-84
2022/10/30 04:42:45;;;;;;;28.45;16.83;;;21.90;62.30;;;;;;4943828;29;20059;-80
2022/10/30 04:45:11;;;;;;;29.67;17.55;;;21.90;62.50;;;;;;4936524;29;20082;-83
2022/10/30 04:47:36;;;;;;;29.30;17.63;;;21.80;62.50;;;;;;4936173;29;20052;-81
2022/10/30 04:50:02;;;;;;;29.70;17.23;;;21.80;62.80;;;;;;4939306;29;20023;-80
2022/10/30 04:52:28;;;;;;;27.92;16.92;;;21.80;62.70;;;;;;4952713;28;20031;-79
2022/10/30 04:54:53;;;;;;;28.00;17.60;;;21.80;62.80;;;;;;4950816;28;20024;-81
2022/10/30 04:57:19;;;;;;;27.95;17.02;;;21.70;62.70;;;;;;4951872;29;20387;-82
2022/10/30 04:59:45;;;;;;;27.75;16.70;;;21.50;62.90;;;;;;4951192;29;20471;-80
2022/10/30 05:02:10;;;;;;;29.67;16.77;;;21.50;63.20;;;;;;4936829;29;20054;-81
2022/10/30 05:04:36;;;;;;;32.20;16.73;;;21.20;63.90;;;;;;4950944;29;20023;-81
2022/10/30 05:07:02;;;;;;;28.88;15.43;;;21.20;63.70;;;;;;4935968;29;20028;-80
2022/10/30 05:09:28;;;;;;;26.58;16.65;;;21.40;63.20;;;;;;4936243;29;20024;-82
2022/10/30 05:11:54;;;;;;;30.23;18.30;;;21.10;64.20;;;;;;4951425;29;20031;-79
2022/10/30 05:14:19;;;;;;;31.52;18.20;;;21.20;64.00;;;;;;4937214;29;20114;-80
2022/10/30 05:16:45;;;;;;;29.63;16.92;;;21.30;63.40;;;;;;4951544;29;20591;-80
2022/10/30 05:19:11;;;;;;;28.88;17.63;;;21.40;63.50;;;;;;4936576;29;20406;-79
2022/10/30 05:21:36;;;;;;;27.25;17.40;;;21.50;63.20;;;;;;4937014;29;20032;-78
2022/10/30 05:24:02;;;;;;;24.52;15.50;;;21.70;62.70;;;;;;4935284;29;20518;-79
2022/10/30 05:26:28;;;;;;;29.65;17.90;;;21.70;62.50;;;;;;4947448;28;20032;-80
2022/10/30 05:28:53;;;;;;;31.42;17.58;;;21.70;62.60;;;;;;4934572;29;20062;-79
2022/10/30 05:31:19;;;;;;;30.08;18.08;;;21.50;63.30;;;;;;4958424;28;20029;-80
2022/10/30 05:33:45;;;;;;;35.03;20.75;;;21.40;63.40;;;;;;4951401;28;20032;-81
2022/10/30 05:36:10;;;;;;;38.00;23.70;;;21.60;62.80;;;;;;4947060;29;20034;-80
2022/10/30 05:38:36;;;;;;;63.28;38.00;;;21.80;62.70;;;;;;4939275;29;20039;-80
2022/10/30 05:41:01;;;;;;;41.78;25.67;;;21.90;62.50;;;;;;4950402;29;20034;-81
2022/10/30 05:43:27;;;;;;;41.95;23.42;;;22.00;62.10;;;;;;4970803;28;20035;-81
2022/10/30 05:45:53;;;;;;;38.28;21.45;;;22.00;61.80;;;;;;4938573;29;20031;-81
2022/10/30 05:48:18;;;;;;;36.45;21.00;;;22.00;61.90;;;;;;4936262;29;20039;-81
2022/10/30 05:50:44;;;;;;;33.03;20.40;;;22.10;61.90;;;;;;4936868;29;20027;-81
2022/10/30 05:53:10;;;;;;;35.63;21.13;;;22.10;61.90;;;;;;4251852;29;10000716;-81
2022/10/30 05:55:35;;;;;;;33.90;20.65;;;22.00;62.10;;;;;;4933285;29;20816;-81
2022/10/30 05:58:03;;;;;;;35.35;20.48;;;22.00;62.10;;;;;;4948305;29;20028;-81
2022/10/30 06:00:31;;;;;;;34.08;20.38;;;21.90;62.30;;;;;;4948671;29;20035;-81
2022/10/30 06:03:01;;;;;;;39.63;20.15;;;22.00;62.20;;;;;;4933089;29;20102;-81
2022/10/30 06:05:29;;;;;;;36.00;19.75;;;22.00;62.20;;;;;;4931944;29;20058;-81
2022/10/30 06:07:55;;;;;;;30.70;18.02;;;22.00;62.00;;;;;;4931851;29;20544;-79
2022/10/30 06:10:25;;;;;;;36.45;19.63;;;22.00;62.00;;;;;;4934065;29;20034;-81
2022/10/30 06:12:55;;;;;;;44.40;20.17;;;22.10;62.00;;;;;;4934070;29;20031;-80
2022/10/30 06:15:21;;;;;;;34.20;20.67;;;22.00;62.20;;;;;;4931904;29;20282;-80
2022/10/30 06:17:47;;;;;;;34.78;19.88;;;21.90;62.40;;;;;;4947966;29;20062;-81
2022/10/30 06:20:13;;;;;;;36.42;18.88;;;21.80;62.70;;;;;;4948121;29;20114;-81
2022/10/30 06:22:39;;;;;;;36.65;18.73;;;21.90;62.60;;;;;;4934453;29;20027;-80
2022/10/30 06:25:05;;;;;;;35.58;19.08;;;21.90;62.30;;;;;;4934832;29;20094;-81
2022/10/30 06:27:34;;;;;;;34.35;19.65;;;22.00;62.20;;;;;;4932888;29;20138;-81
2022/10/30 06:29:59;;;;;;;31.98;18.27;;;22.00;62.30;;;;;;4934152;29;20032;-81
2022/10/30 06:32:25;;;;;;;31.10;18.42;;;22.00;62.20;;;;;;4932894;29;20028;-81
2022/10/30 06:34:51;;;;;;;36.05;18.98;;;22.00;62.20;;;;;;4934039;29;20038;-81
2022/10/30 06:37:16;;;;;;;37.17;18.80;;;22.00;62.30;;;;;;4933906;29;20087;-81
2022/10/30 06:39:42;;;;;;;32.88;19.05;;;21.90;62.40;;;;;;4948165;29;20474;-81
2022/10/30 06:42:08;;;;;;;27.98;16.55;;;22.00;62.30;;;;;;4933628;29;20035;-80
2022/10/30 06:44:33;;;;;;;30.35;17.83;;;21.60;62.70;;;;;;4933302;29;20107;-79
2022/10/30 06:46:59;;;;;;;31.92;18.15;;;21.10;64.30;;;;;;4947737;29;20035;-80
2022/10/30 06:49:25;;;;;;;28.60;16.83;;;21.20;64.20;;;;;;4948233;29;20406;-81
2022/10/30 06:51:51;;;;;;;33.97;18.45;;;21.40;63.40;;;;;;4947425;29;20020;-80
2022/10/30 06:54:16;;;;;;;35.70;18.80;;;21.60;63.10;;;;;;4932561;29;20099;-79
2022/10/30 06:56:42;;;;;;;33.67;17.92;;;21.90;62.80;;;;;;4932498;29;20035;-80
2022/10/30 06:59:09;;;;;;;30.60;17.63;;;22.00;62.40;;;;;;4932726;29;20474;-80
2022/10/30 07:01:34;;;;;;;34.95;19.27;;;21.90;62.40;;;;;;4931583;29;20035;-80
2022/10/30 07:04:00;;;;;;;32.13;18.27;;;22.10;62.40;;;;;;4932740;29;20036;-81
2022/10/30 07:06:26;;;;;;;34.17;19.58;;;22.10;62.30;;;;;;4932661;29;20032;-80
2022/10/30 07:08:52;;;;;;;31.90;18.20;;;22.20;61.90;;;;;;4932999;29;20074;-80
2022/10/30 07:11:18;;;;;;;29.83;17.75;;;22.10;62.10;;;;;;4948047;29;20058;-81
2022/10/30 07:13:44;;;;;;;35.35;18.83;;;21.90;62.60;;;;;;4947766;29;20095;-79
2022/10/30 07:16:10;;;;;;;30.10;18.10;;;21.90;62.50;;;;;;4947528;29;20027;-80
2022/10/30 07:18:36;;;;;;;34.08;18.80;;;21.90;62.40;;;;;;4950017;28;20027;-79
2022/10/30 07:21:01;;;;;;;38.67;18.73;;;21.80;62.90;;;;;;4950971;29;20118;-80
2022/10/30 07:23:27;;;;;;;38.03;19.83;;;21.70;63.10;;;;;;4936216;29;20188;-78
2022/10/30 07:25:53;;;;;;;35.17;19.02;;;21.70;63.30;;;;;;4950611;29;20066;-79
2022/10/30 07:28:18;;;;;;;35.65;19.30;;;21.80;63.10;;;;;;4949687;28;20788;-79
2022/10/30 07:30:44;;;;;;;36.95;19.40;;;21.90;63.10;;;;;;4935827;29;20039;-79
2022/10/30 07:33:10;;;;;;;34.40;20.10;;;21.90;63.10;;;;;;4935493;29;20028;-79
2022/10/30 07:35:35;;;;;;;37.50;19.15;;;21.90;63.00;;;;;;4950265;29;20071;-80
2022/10/30 07:38:10;;;;;;;34.85;18.08;;;22.00;63.00;;;;;;4951559;29;20502;-80
2022/10/30 07:40:36;;;;;;;40.10;19.52;;;22.00;63.00;;;;;;4936408;29;20019;-80
2022/10/30 07:43:02;;;;;;;35.08;19.42;;;22.10;62.70;;;;;;4936715;29;20106;-80
2022/10/30 07:45:29;;;;;;;38.28;19.60;;;22.10;62.70;;;;;;4935284;29;20024;-80
2022/10/30 07:47:54;;;;;;;36.03;19.65;;;22.20;62.60;;;;;;4935723;29;20048;-80
2022/10/30 07:50:20;;;;;;;39.33;19.88;;;22.10;62.70;;;;;;4935350;29;20043;-80
2022/10/30 07:52:46;;;;;;;29.15;17.42;;;22.10;62.90;;;;;;4935500;29;20442;-80
2022/10/30 07:55:12;;;;;;;37.75;20.38;;;22.10;63.10;;;;;;4934825;29;20032;-78
2022/10/30 07:57:40;;;;;;;33.83;18.92;;;22.10;62.80;;;;;;4934487;29;20047;-81
2022/10/30 08:00:10;;;;;;;37.70;19.40;;;22.20;62.80;;;;;;4935780;29;20477;-80
2022/10/30 08:02:36;;;;;;;;;;;22.40;62.70;;;;;;4936516;29;20031;-80
2022/10/30 08:05:02;;;;;;;37.15;19.42;;;22.30;62.50;;;;;;4935567;29;19911;-80
2022/10/30 08:07:36;;;;;;;34.25;18.40;;;22.30;62.60;;;;;;4935080;29;20439;-80
2022/10/30 08:10:02;;;;;;;40.97;20.25;;;22.30;62.50;;;;;;4949238;29;20042;-81
2022/10/30 08:12:28;;;;;;;32.78;18.65;;;22.20;62.70;;;;;;4934100;29;20028;-80
2022/10/30 08:14:54;;;;;;;31.17;16.38;;;22.00;63.10;;;;;;4932855;29;20110;-79
2022/10/30 08:17:20;;;;;;;30.13;16.38;;;21.80;63.10;;;;;;4936580;29;20027;-80
2022/10/30 08:19:46;;;;;;;32.65;18.42;;;21.10;64.60;;;;;;4935943;29;20039;-80
2022/10/30 08:22:12;;;;;;;39.22;19.15;;;20.90;65.80;;;;;;4937553;29;20023;-81
2022/10/30 08:24:38;;;;;;;30.33;17.35;;;21.20;65.40;;;;;;4938156;29;20159;-80
2022/10/30 08:27:04;;;;;;;37.05;19.48;;;21.30;64.80;;;;;;4936876;29;20094;-79
2022/10/30 08:29:30;;;;;;;35.35;18.63;;;21.30;65.10;;;;;;4935268;29;20514;-79
2022/10/30 08:31:56;;;;;;;33.95;17.75;;;21.70;64.40;;;;;;4936283;29;20534;-80
2022/10/30 08:34:22;;;;;;;36.42;19.70;;;21.60;64.30;;;;;;4936831;29;20159;-79
2022/10/30 08:36:51;;;;;;;29.05;17.27;;;21.50;65.00;;;;;;4952213;29;20083;-81
2022/10/30 08:39:17;;;;;;;32.90;18.23;;;21.60;64.40;;;;;;4936188;29;20024;-81
2022/10/30 08:41:45;;;;;;;33.38;17.95;;;21.50;64.00;;;;;;4936575;29;20079;-80
2022/10/30 08:44:11;;;;;;;32.63;17.55;;;21.70;64.20;;;;;;4936537;29;20126;-81
2022/10/30 08:46:37;;;;;;;34.88;18.25;;;21.80;64.40;;;;;;4936162;29;20031;-80
2022/10/30 08:49:03;;;;;;;38.03;24.77;;;21.90;63.90;;;;;;4937652;29;20040;-80
2022/10/30 08:51:32;;;;;;;32.47;18.17;;;22.30;63.30;;;;;;4937495;29;20034;-81
2022/10/30 08:53:58;;;;;;;34.38;18.15;;;22.30;62.70;;;;;;4936540;29;20039;-81
2022/10/30 08:56:24;;;;;;;31.65;16.73;;;22.10;63.30;;;;;;4935627;29;20039;-79
2022/10/30 08:58:50;;;;;;;31.00;16.80;;;21.80;63.10;;;;;;4936289;29;20024;-81
2022/10/30 09:01:17;;;;;;;39.85;21.50;;;21.30;64.50;;;;;;4936291;29;20027;-79
2022/10/30 09:03:44;;;;;;;35.13;18.92;;;21.10;65.70;;;;;;4936940;29;20026;-79
2022/10/30 09:06:10;;;;;;;34.88;20.40;;;21.20;65.30;;;;;;4935892;29;20068;-81
2022/10/30 09:08:36;;;;;;;37.55;24.17;;;21.60;65.10;;;;;;4952038;29;20035;-79
2022/10/30 09:11:01;;;;;;;41.42;23.15;;;21.90;64.00;;;;;;4935565;29;20031;-80
2022/10/30 09:13:31;;;;;;;48.33;24.92;;;22.00;63.80;;;;;;4722469;29;10000776;-80
2022/10/30 09:16:01;;;;;;;37.30;20.50;;;22.40;63.40;;;;;;4948827;29;20228;-79
2022/10/30 09:18:27;;;;;;;41.33;20.75;;;22.60;62.80;;;;;;4934434;29;20027;-80
2022/10/30 09:20:52;;;;;;;38.70;22.17;;;22.60;62.30;;;;;;4916693;29;20040;-79
2022/10/30 09:23:18;;;;;;;40.65;24.48;;;22.50;62.80;;;;;;4934372;29;20024;-79
2022/10/30 09:25:55;;;;;;;37.67;20.26;;;22.50;62.80;;;;;;4853025;29;10001026;-80
2022/10/30 09:28:21;;;;;;;39.58;21.33;;;22.50;62.80;;;;;;4912788;29;20403;-80
2022/10/30 09:30:51;;;;;;;46.42;22.05;;;22.50;62.90;;;;;;4912541;29;20032;-80
2022/10/30 09:33:17;;;;;;;38.13;20.55;;;22.60;62.60;;;;;;4928895;29;20035;-80
2022/10/30 09:35:42;;;;;;;36.55;20.00;;;22.70;62.40;;;;;;4914781;29;20024;-79
2022/10/30 09:38:09;;;;;;;30.50;17.40;;;22.80;62.30;;;;;;4912936;29;20406;-79
2022/10/30 09:40:49;;;;;;;33.50;19.90;;;22.90;61.80;;;;;;4913388;29;20064;-80
2022/10/30 09:43:33;;;;;;;35.75;21.60;;;22.30;63.20;;;;;;4929344;29;20047;-79
2022/10/30 09:46:14;;;;;;;31.75;18.50;;;22.30;63.20;;;;;;4929078;29;20469;-79
2022/10/30 09:49:08;;;;;;;35.67;19.65;;;22.50;62.80;;;;;;4914680;29;20399;-79
2022/10/30 09:51:55;;;;;;;33.13;19.30;;;22.20;63.40;;;;;;4914406;29;20076;-79
2022/10/30 09:54:35;;;;;;;35.72;19.55;;;22.30;63.20;;;;;;4915504;29;20044;-80
2022/10/30 09:57:27;;;;;;;35.50;18.85;;;22.50;63.00;;;;;;4931605;29;20060;-80
2022/10/30 10:00:12;;;;;;;39.40;19.45;;;22.50;63.00;;;;;;4857758;29;20048;-79
2022/10/30 10:03:03;;;;;;;35.70;19.27;;;22.60;62.70;;;;;;4843571;29;20120;-80
2022/10/30 10:05:46;;;;;;;36.63;20.98;;;22.70;62.40;;;;;;4859131;29;20129;-81
2022/10/30 10:08:23;;;;;;;37.85;23.70;;;22.80;62.10;;;;;;4859091;29;20049;-80
2022/10/30 10:10:56;;;;;;;35.45;19.35;;;22.80;62.30;;;;;;4843724;29;20037;-80
2022/10/30 10:13:31;;;;;;;40.33;23.48;;;23.00;62.50;;;;;;4841406;29;20037;-80
2022/10/30 10:16:21;;;;;;;37.42;22.20;;;23.10;62.10;;;;;;4856204;29;20101;-81
2022/10/30 10:18:56;;;;;;;32.80;19.92;;;23.20;61.60;;;;;;4856988;29;20038;-79
2022/10/30 10:21:26;;;;;;;41.80;23.23;;;23.40;61.60;;;;;;4857833;29;20029;-80
2022/10/30 10:23:54;;;;;;;;;;;23.20;61.70;;;;;;4842506;29;20038;-81
2022/10/30 10:26:30;;;;;;;35.58;19.55;;;23.20;61.80;;;;;;4857719;29;19908;-80
2022/10/30 10:29:07;;;;;;;67.80;46.58;;;23.20;61.70;;;;;;4858602;29;20636;-80
2022/10/30 10:31:44;;;;;;;32.83;22.40;;;23.20;61.30;;;;;;4858885;29;20049;-81
2022/10/30 10:34:15;;;;;;;33.20;19.83;;;23.10;61.50;;;;;;4858977;29;20029;-80
2022/10/30 10:36:49;;;;;;;33.33;19.05;;;22.90;62.40;;;;;;4883916;29;20068;-80
2022/10/30 10:39:44;;;;;;;43.05;26.98;;;23.00;62.10;;;;;;4916906;29;20060;-79
2022/10/30 10:42:39;;;;;;;34.20;19.15;;;23.00;62.00;;;;;;4858712;29;20033;-80
2022/10/30 10:45:39;;;;;;;27.02;15.98;;;23.20;61.90;;;;;;4843133;29;20041;-80
2022/10/30 10:48:37;;;;;;;29.27;16.30;;;22.70;62.00;;;;;;4803388;29;20586;-79
2022/10/30 10:51:31;;;;;;;37.67;32.17;;;22.00;63.40;;;;;;4803544;29;20559;-80
2022/10/30 10:54:01;;;;;;;32.95;26.23;;;21.60;64.80;;;;;;4787392;29;20495;-81
2022/10/30 10:56:32;;;;;;;31.33;21.40;;;22.00;64.40;;;;;;4803502;29;20568;-80
2022/10/30 10:59:03;;;;;;;36.17;27.45;;;22.50;63.40;;;;;;4803714;29;20123;-80
2022/10/30 11:01:37;;;;;;;42.65;37.15;;;22.50;62.80;;;;;;4803626;29;20039;-81
2022/10/30 11:04:17;;;;;;;31.95;19.00;;;22.80;62.70;;;;;;4803694;29;20084;-81
2022/10/30 11:06:48;;;;;;;27.13;16.75;;;23.00;62.20;;;;;;4803760;29;20035;-81
2022/10/30 11:09:18;;;;;;;28.00;16.63;;;23.20;61.40;;;;;;4803284;29;20054;-80
2022/10/30 11:11:45;;;;;;;28.65;17.77;;;22.90;62.20;;;;;;4788724;29;20035;-80
2022/10/30 11:14:27;;;;;;;25.40;16.27;;;22.80;62.90;;;;;;4803350;29;20046;-80
2022/10/30 11:16:58;;;;;;;29.67;17.40;;;22.90;61.80;;;;;;4803390;29;20031;-81
2022/10/30 11:19:24;;;;;;;27.23;17.95;;;22.70;62.50;;;;;;4840771;29;20437;-81
2022/10/30 11:21:53;;;;;;;26.20;16.20;;;22.70;62.20;;;;;;4882305;29;20065;-81
2022/10/30 11:24:45;;;;;;;35.60;19.88;;;22.50;63.10;;;;;;4915265;29;20055;-81
2022/10/30 11:27:23;;;;;;;29.35;16.45;;;22.70;62.70;;;;;;4911841;29;20043;-80
2022/10/30 11:29:53;;;;;;;30.00;17.90;;;23.00;62.60;;;;;;4935132;29;20043;-80
2022/10/30 11:32:21;;;;;;;35.45;17.35;;;23.20;61.50;;;;;;4933812;29;20024;-80
2022/10/30 11:35:08;;;;;;;66.85;50.83;;;22.90;62.10;;;;;;4933921;29;20131;-79
2022/10/30 11:37:36;;;;;;;33.92;18.83;;;22.60;62.80;;;;;;4935243;29;20641;-79
2022/10/30 11:40:10;;;;;;;32.13;19.73;;;22.70;62.90;;;;;;4935156;29;20035;-79
2022/10/30 11:42:38;;;;;;;31.33;16.98;;;22.90;62.80;;;;;;4935155;29;20023;-80
2022/10/30 11:45:11;;;;;;;32.05;19.20;;;23.00;62.50;;;;;;4935051;29;20491;-79
2022/10/30 11:47:38;;;;;;;29.05;17.75;;;23.00;62.60;;;;;;4934994;29;20040;-80
2022/10/30 11:50:06;;;;;;;29.67;17.60;;;23.00;62.60;;;;;;4935010;29;20032;-80
2022/10/30 11:52:40;;;;;;;30.88;17.53;;;23.20;62.20;;;;;;4593549;29;10000675;-81
2022/10/30 11:55:19;;;;;;;28.15;16.95;;;23.40;62.00;;;;;;4591654;29;10000426;-80
2022/10/30 11:57:53;;;;;;;32.00;17.90;;;23.60;61.50;;;;;;4934952;29;20051;-81
2022/10/30 12:00:28;;;;;;;32.33;17.23;;;23.70;61.30;;;;;;4933822;29;20027;-84
2022/10/30 12:02:56;;;;;;;166.45;28.25;;;23.60;61.10;;;;;;4933791;29;20020;-81
2022/10/30 12:05:34;;;;;;;40.38;19.33;;;23.40;62.20;;;;;;4937183;29;20127;-81
2022/10/30 12:08:08;;;;;;;30.67;18.05;;;23.00;62.60;;;;;;4938202;29;20036;-79
2022/10/30 12:10:51;;;;;;;34.21;20.26;;;22.80;62.80;;;;;;4597658;28;10001320;-81
2022/10/30 12:13:19;;;;;;;164.05;39.65;;;22.80;62.70;;;;;;4935332;29;20359;-80
2022/10/30 12:15:49;;;;;;;44.95;22.73;;;23.00;62.80;;;;;;4935805;29;20028;-81
2022/10/30 12:18:29;;;;;;;32.42;18.88;;;23.10;62.70;;;;;;4935443;29;20236;-80
2022/10/30 12:20:56;;;;;;;34.03;19.20;;;23.10;62.30;;;;;;4936247;29;20382;-81
2022/10/30 12:23:24;;;;;;;32.05;19.17;;;23.20;62.10;;;;;;4936880;29;20091;-80
2022/10/30 12:26:11;;;;;;;29.00;17.75;;;23.20;62.00;;;;;;4937516;29;20390;-81
2022/10/30 12:28:38;;;;;;;32.80;19.95;;;23.20;61.80;;;;;;4936670;29;20056;-79
2022/10/30 12:31:12;;;;;;;37.95;19.55;;;23.10;62.10;;;;;;4937888;29;20098;-80
2022/10/30 12:34:07;;;;;;;30.23;18.85;;;22.90;62.70;;;;;;4921095;29;20320;-80
2022/10/30 12:36:41;;;;;;;33.05;19.88;;;23.00;62.60;;;;;;4920331;29;20368;-80
2022/10/30 12:39:33;;;;;;;36.63;21.65;;;23.00;62.30;;;;;;4586295;29;9999711;-80
2022/10/30 12:42:12;;;;;;;30.02;18.60;;;22.80;63.40;;;;;;4916654;29;20039;-78